createdAt,value
2019-03-19T00:02:18.766Z,5.56
2019-03-19T00:04:45.826Z,5.56
2019-03-19T00:07:12.842Z,5.69
2019-03-19T00:09:39.960Z,5.37
2019-03-19T00:12:06.942Z,5.44
2019-03-19T00:14:33.935Z,5.56
2019-03-19T00:17:00.979Z,5.56
2019-03-19T00:19:27.993Z,5.44
2019-03-19T00:21:55.022Z,5.37
2019-03-19T00:24:22.005Z,5.44
2019-03-19T00:26:49.022Z,5.50
2019-03-19T00:29:16.134Z,5.44
2019-03-19T00:31:43.161Z,5.25
2019-03-19T00:34:10.224Z,5.31
2019-03-19T00:36:37.325Z,5.31
2019-03-19T00:39:05.944Z,5.25
2019-03-19T00:41:32.968Z,5.19
2019-03-19T00:44:00.148Z,5.31
2019-03-19T00:46:27.274Z,5.25
2019-03-19T00:48:54.417Z,5.06
2019-03-19T00:51:21.418Z,5.31
2019-03-19T00:53:50.559Z,5.12
2019-03-19T00:56:17.704Z,5.12
2019-03-19T00:58:44.730Z,5.00
2019-03-19T01:01:11.795Z,5.12
2019-03-19T01:03:38.897Z,5.00
2019-03-19T01:06:05.942Z,5.00
2019-03-19T01:08:32.988Z,4.94
2019-03-19T01:10:59.992Z,5.12
2019-03-19T01:13:27.071Z,5.19
2019-03-19T01:15:54.093Z,5.19
2019-03-19T01:18:21.078Z,5.06
2019-03-19T01:20:48.171Z,5.25
2019-03-19T01:23:15.287Z,5.19
2019-03-19T01:25:54.758Z,5.06
2019-03-19T01:28:09.363Z,4.94
2019-03-19T01:30:36.378Z,4.81
2019-03-19T01:33:03.466Z,5.06
2019-03-19T01:35:30.518Z,4.94
2019-03-19T01:37:57.560Z,4.81
2019-03-19T01:40:24.655Z,4.94
2019-03-19T01:42:51.703Z,5.06
2019-03-19T01:45:18.694Z,5.12
2019-03-19T01:47:45.765Z,5.12
2019-03-19T01:50:12.768Z,5.06
2019-03-19T01:52:39.791Z,5.00
2019-03-19T01:55:08.226Z,5.00
2019-03-19T01:57:35.249Z,5.12
2019-03-19T02:00:02.506Z,5.19
2019-03-19T02:02:29.551Z,5.25
2019-03-19T02:04:56.623Z,5.25
2019-03-19T02:07:23.615Z,5.12
2019-03-19T02:09:51.333Z,5.12
2019-03-19T02:12:18.474Z,5.19
2019-03-19T02:14:45.514Z,5.06
2019-03-19T02:17:12.854Z,5.00
2019-03-19T02:19:39.676Z,5.00
2019-03-19T02:22:06.712Z,5.00
2019-03-19T02:24:33.706Z,5.06
2019-03-19T02:27:00.814Z,4.94
2019-03-19T02:29:27.806Z,4.87
2019-03-19T02:31:54.853Z,4.94
2019-03-19T02:34:21.914Z,4.94
2019-03-19T02:36:49.322Z,4.87
2019-03-19T02:39:16.624Z,4.75
2019-03-19T02:41:43.708Z,4.94
2019-03-19T02:44:10.856Z,4.94
2019-03-19T02:46:37.929Z,4.94
2019-03-19T02:49:04.992Z,5.00
2019-03-19T02:51:32.088Z,4.87
2019-03-19T02:53:59.045Z,4.75
2019-03-19T02:56:32.858Z,4.62
2019-03-19T02:58:53.148Z,4.50
2019-03-19T03:01:20.390Z,4.62
2019-03-19T03:03:47.822Z,4.69
2019-03-19T03:06:15.008Z,4.87
2019-03-19T03:08:42.057Z,4.75
2019-03-19T03:11:09.195Z,4.75
2019-03-19T03:13:36.467Z,4.69
2019-03-19T03:16:03.520Z,4.31
2019-03-19T03:18:30.571Z,4.69
2019-03-19T03:20:57.572Z,4.69
2019-03-19T03:23:24.650Z,4.50
2019-03-19T03:25:51.737Z,4.50
2019-03-19T03:28:18.787Z,4.69
2019-03-19T03:30:45.825Z,4.50
2019-03-19T03:33:12.801Z,4.56
2019-03-19T03:35:39.771Z,4.50
2019-03-19T03:38:06.890Z,4.50
2019-03-19T03:40:34.534Z,4.69
2019-03-19T03:43:01.563Z,4.50
2019-03-19T03:45:28.622Z,4.50
2019-03-19T03:47:55.676Z,4.62
2019-03-19T03:50:22.717Z,4.62
2019-03-19T03:52:49.744Z,4.50
2019-03-19T03:55:16.876Z,4.56
2019-03-19T03:57:44.484Z,4.62
2019-03-19T04:00:12.349Z,4.50
2019-03-19T04:02:39.444Z,4.50
2019-03-19T04:05:06.556Z,4.50
2019-03-19T04:07:33.641Z,4.62
2019-03-19T04:10:00.703Z,4.56
2019-03-19T04:12:27.774Z,4.56
2019-03-19T04:14:54.841Z,4.50
2019-03-19T04:17:21.839Z,4.62
2019-03-19T04:19:48.909Z,4.44
2019-03-19T04:22:16.161Z,4.19
2019-03-19T04:24:43.132Z,4.62
2019-03-19T04:27:16.110Z,4.69
2019-03-19T04:29:37.225Z,4.69
2019-03-19T04:32:04.249Z,4.56
2019-03-19T04:34:31.284Z,4.56
2019-03-19T04:36:58.331Z,4.56
2019-03-19T04:39:25.424Z,4.62
2019-03-19T04:41:52.457Z,4.75
2019-03-19T04:44:19.474Z,4.81
2019-03-19T04:46:46.520Z,4.69
2019-03-19T04:49:13.600Z,4.81
2019-03-19T04:51:40.620Z,4.81
2019-03-19T04:54:07.623Z,4.56
2019-03-19T04:56:34.673Z,4.69
2019-03-19T04:59:02.854Z,4.81
2019-03-19T05:01:29.826Z,4.81
2019-03-19T05:03:57.380Z,4.75
2019-03-19T05:06:26.213Z,4.75
2019-03-19T05:08:54.613Z,4.56
2019-03-19T05:11:21.854Z,4.75
2019-03-19T05:13:49.927Z,4.62
2019-03-19T05:16:17.090Z,4.81
2019-03-19T05:18:45.211Z,4.81
2019-03-19T05:21:12.164Z,4.69
2019-03-19T05:23:39.105Z,4.69
2019-03-19T05:26:06.056Z,4.56
2019-03-19T05:28:33.050Z,4.75
2019-03-19T05:30:59.978Z,4.75
2019-03-19T05:33:26.946Z,4.56
2019-03-19T05:35:53.940Z,4.56
2019-03-19T05:38:20.835Z,4.94
2019-03-19T05:40:47.803Z,4.87
2019-03-19T05:43:14.791Z,4.75
2019-03-19T05:45:41.737Z,4.75
2019-03-19T05:48:08.689Z,4.87
2019-03-19T05:50:35.673Z,4.81
2019-03-19T05:53:02.606Z,4.81
2019-03-19T05:55:29.615Z,4.62
2019-03-19T05:57:56.636Z,4.81
2019-03-19T06:00:24.627Z,4.94
2019-03-19T06:02:51.618Z,4.62
2019-03-19T06:05:20.981Z,4.87
2019-03-19T06:07:45.622Z,4.87
2019-03-19T06:10:12.666Z,4.81
2019-03-19T06:12:39.691Z,4.69
2019-03-19T06:15:06.831Z,4.75
2019-03-19T06:17:33.836Z,4.94
2019-03-19T06:20:00.864Z,5.06
2019-03-19T06:22:27.804Z,5.12
2019-03-19T06:24:54.810Z,4.81
2019-03-19T06:27:21.745Z,5.12
2019-03-19T06:29:48.692Z,5.12
2019-03-19T06:32:15.798Z,5.06
2019-03-19T06:34:42.839Z,4.87
2019-03-19T06:37:09.813Z,5.25
2019-03-19T06:39:36.961Z,5.00
2019-03-19T06:42:04.033Z,5.19
2019-03-19T06:44:31.021Z,5.31
2019-03-19T06:46:58.031Z,5.44
2019-03-19T06:49:24.985Z,5.44
2019-03-19T06:51:52.674Z,5.56
2019-03-19T06:54:19.712Z,5.44
2019-03-19T06:56:46.775Z,5.44
2019-03-19T06:59:13.828Z,5.50
2019-03-19T07:01:40.846Z,5.31
2019-03-19T07:04:07.914Z,5.00
2019-03-19T07:06:34.961Z,5.19
2019-03-19T07:09:01.947Z,5.44
2019-03-19T07:11:28.969Z,5.44
2019-03-19T07:13:56.003Z,5.37
2019-03-19T07:16:23.156Z,5.25
2019-03-19T07:18:50.887Z,5.37
2019-03-19T07:21:17.970Z,5.31
2019-03-19T07:23:44.997Z,5.25
2019-03-19T07:26:12.080Z,5.31
2019-03-19T07:28:50.869Z,5.12
2019-03-19T07:31:17.884Z,5.37
2019-03-19T07:33:45.794Z,5.37
2019-03-19T07:36:13.680Z,5.56
2019-03-19T07:38:40.671Z,5.44
2019-03-19T07:41:07.757Z,5.44
2019-03-19T07:43:34.804Z,5.31
2019-03-19T07:46:01.858Z,5.31
2019-03-19T07:48:28.885Z,5.56
2019-03-19T07:50:55.888Z,5.75
2019-03-19T07:53:22.908Z,5.69
2019-03-19T07:55:49.929Z,5.87
2019-03-19T07:58:16.892Z,5.94
2019-03-19T08:00:44.006Z,6.06
2019-03-19T08:03:16.199Z,5.94
2019-03-19T08:05:38.117Z,5.94
2019-03-19T08:08:05.230Z,5.94
2019-03-19T08:10:32.308Z,5.75
2019-03-19T08:12:59.453Z,5.69
2019-03-19T08:15:26.621Z,5.94
2019-03-19T08:17:53.697Z,5.87
2019-03-19T08:20:20.801Z,5.69
2019-03-19T08:22:47.896Z,5.87
2019-03-19T08:25:15.136Z,5.81
2019-03-19T08:27:42.210Z,6.19
2019-03-19T08:30:12.724Z,6.31
2019-03-19T08:32:39.696Z,6.44
2019-03-19T08:35:06.906Z,6.31
2019-03-19T08:37:33.964Z,6.25
2019-03-19T08:40:01.059Z,6.19
2019-03-19T08:42:28.358Z,6.19
2019-03-19T08:44:55.500Z,6.37
2019-03-19T08:47:22.483Z,6.31
2019-03-19T08:49:49.596Z,6.19
2019-03-19T08:52:17.281Z,6.31
2019-03-19T08:54:44.312Z,6.12
2019-03-19T08:57:11.371Z,6.56
2019-03-19T08:59:38.501Z,6.56
2019-03-19T09:02:06.205Z,6.81
2019-03-19T09:04:33.770Z,6.75
2019-03-19T09:07:00.803Z,6.62
2019-03-19T09:09:27.950Z,6.94
2019-03-19T09:11:55.121Z,7.00
2019-03-19T09:14:22.198Z,6.87
2019-03-19T09:16:49.202Z,6.94
2019-03-19T09:19:16.295Z,7.12
2019-03-19T09:21:43.860Z,7.19
2019-03-19T09:24:10.878Z,7.31
2019-03-19T09:26:37.884Z,6.94
2019-03-19T09:29:05.031Z,7.25
2019-03-19T09:31:32.192Z,7.00
2019-03-19T09:33:59.296Z,7.00
2019-03-19T09:36:27.417Z,6.69
2019-03-19T09:38:54.575Z,7.00
2019-03-19T09:41:24.362Z,7.06
2019-03-19T09:43:53.453Z,7.00
2019-03-19T09:46:19.377Z,7.25
2019-03-19T09:48:47.738Z,7.25
2019-03-19T09:51:15.477Z,7.25
2019-03-19T09:53:44.460Z,7.37
2019-03-19T09:56:13.614Z,7.31
2019-03-19T09:58:44.148Z,7.12
2019-03-19T10:01:12.212Z,7.19
2019-03-19T10:03:39.580Z,7.06
2019-03-19T10:06:13.974Z,7.25
2019-03-19T10:08:33.715Z,7.25
2019-03-19T10:11:00.866Z,7.12
2019-03-19T10:13:27.890Z,7.06
2019-03-19T10:15:57.388Z,7.19
2019-03-19T10:18:25.353Z,7.06
2019-03-19T10:20:52.483Z,7.00
2019-03-19T10:23:20.191Z,7.00
2019-03-19T10:25:50.007Z,7.19
2019-03-19T10:28:17.776Z,7.19
2019-03-19T10:30:45.021Z,7.31
2019-03-19T10:33:12.015Z,7.12
2019-03-19T10:35:39.071Z,7.25
2019-03-19T10:38:06.096Z,7.44
2019-03-19T10:40:33.193Z,7.31
2019-03-19T10:43:00.504Z,7.56
2019-03-19T10:45:29.108Z,7.62
2019-03-19T10:47:56.204Z,7.44
2019-03-19T10:50:24.236Z,7.50
2019-03-19T10:52:52.000Z,7.37
2019-03-19T10:55:19.184Z,7.75
2019-03-19T10:57:47.457Z,7.62
2019-03-19T11:00:17.275Z,7.62
2019-03-19T11:02:46.215Z,7.56
2019-03-19T11:05:13.976Z,7.37
2019-03-19T11:07:41.607Z,7.37
2019-03-19T11:10:08.841Z,7.50
2019-03-19T11:12:36.264Z,7.56
2019-03-19T11:15:25.225Z,7.69
2019-03-19T11:17:54.054Z,7.37
2019-03-19T11:20:22.001Z,7.37
2019-03-19T11:22:49.119Z,7.50
2019-03-19T11:30:19.040Z,8.00
2019-03-19T11:32:47.116Z,8.19
2019-03-19T11:35:14.433Z,7.94
2019-03-19T11:37:43.047Z,8.06
2019-03-19T11:40:10.944Z,8.06
2019-03-19T11:42:38.261Z,8.25
2019-03-19T11:45:05.768Z,8.44
2019-03-19T11:47:33.816Z,8.31
2019-03-19T11:50:00.927Z,8.13
2019-03-19T11:52:28.730Z,8.06
2019-03-19T11:54:55.730Z,8.06
2019-03-19T11:57:24.774Z,8.00
2019-03-19T11:59:51.873Z,7.87
2019-03-19T12:02:25.754Z,8.13
2019-03-19T12:04:46.089Z,8.19
2019-03-19T12:07:13.119Z,8.25
2019-03-19T12:09:40.677Z,8.31
2019-03-19T12:12:07.737Z,8.13
2019-03-19T12:14:34.851Z,8.19
2019-03-19T12:17:02.492Z,8.38
2019-03-19T12:19:29.580Z,8.19
2019-03-19T12:21:56.651Z,8.31
2019-03-19T12:24:23.753Z,8.56
2019-03-19T12:26:50.988Z,8.44
2019-03-19T12:29:18.301Z,8.63
2019-03-19T12:31:46.115Z,8.13
2019-03-19T12:34:13.218Z,8.56
2019-03-19T12:36:40.469Z,8.56
2019-03-19T12:39:09.710Z,8.38
2019-03-19T12:41:34.963Z,8.44
2019-03-19T12:44:02.093Z,8.44
2019-03-19T12:46:29.363Z,8.69
2019-03-19T12:48:56.465Z,8.50
2019-03-19T12:51:23.637Z,8.75
2019-03-19T12:53:50.634Z,8.50
2019-03-19T12:56:17.710Z,8.81
2019-03-19T12:58:44.748Z,8.69
2019-03-19T13:01:11.821Z,8.69
2019-03-19T13:03:40.558Z,8.81
2019-03-19T13:06:07.699Z,8.69
2019-03-19T13:08:35.405Z,8.69
2019-03-19T13:11:02.454Z,8.50
2019-03-19T13:13:29.550Z,8.75
2019-03-19T13:15:56.624Z,8.75
2019-03-19T13:18:23.725Z,8.81
2019-03-19T13:20:50.735Z,8.94
2019-03-19T13:23:17.745Z,8.81
2019-03-19T13:25:44.874Z,8.81
2019-03-19T13:28:11.993Z,8.88
2019-03-19T13:30:44.876Z,9.19
2019-03-19T13:33:06.232Z,9.19
2019-03-19T13:35:36.287Z,8.94
2019-03-19T13:38:03.356Z,8.94
2019-03-19T13:40:30.516Z,8.63
2019-03-19T13:42:57.694Z,8.63
2019-03-19T13:45:24.727Z,8.63
2019-03-19T13:47:52.670Z,8.31
2019-03-19T13:50:20.088Z,8.38
2019-03-19T13:52:48.683Z,8.63
2019-03-19T13:55:15.982Z,8.69
2019-03-19T13:57:43.032Z,8.56
2019-03-19T14:00:11.345Z,8.75
2019-03-19T14:02:38.516Z,8.50
2019-03-19T14:05:06.081Z,8.56
2019-03-19T14:07:33.327Z,8.56
2019-03-19T14:10:00.452Z,8.50
2019-03-19T14:12:28.427Z,8.44
2019-03-19T14:15:03.582Z,8.38
2019-03-19T14:17:30.657Z,8.50
2019-03-19T14:19:57.789Z,8.50
2019-03-19T14:22:25.601Z,8.38
2019-03-19T14:24:52.726Z,8.19
2019-03-19T14:27:19.786Z,8.25
2019-03-19T14:29:46.890Z,8.63
2019-03-19T14:32:13.935Z,8.56
2019-03-19T14:34:41.093Z,8.38
2019-03-19T14:37:08.334Z,8.63
2019-03-19T14:39:36.276Z,8.38
2019-03-19T14:42:03.359Z,8.56
2019-03-19T14:44:30.417Z,8.56
2019-03-19T14:46:57.400Z,8.56
2019-03-19T14:49:25.305Z,8.44
2019-03-19T14:51:53.053Z,8.50
2019-03-19T14:54:20.089Z,8.25
2019-03-19T14:56:47.111Z,8.25
2019-03-19T14:59:14.402Z,8.69
2019-03-19T15:01:41.500Z,8.19
2019-03-19T15:04:08.553Z,8.25
2019-03-19T15:06:36.595Z,8.19
2019-03-19T15:09:05.463Z,8.06
2019-03-19T15:11:32.537Z,8.31
2019-03-19T15:13:59.686Z,8.25
2019-03-19T15:16:27.556Z,8.25
2019-03-19T15:18:54.684Z,8.19
2019-03-19T15:21:22.760Z,8.19
2019-03-19T15:23:49.828Z,8.13
2019-03-19T15:26:17.418Z,8.25
2019-03-19T15:28:44.452Z,8.13
2019-03-19T15:31:11.592Z,8.38
2019-03-19T15:33:39.262Z,8.19
2019-03-19T15:36:06.362Z,8.31
2019-03-19T15:38:33.543Z,8.50
2019-03-19T15:41:00.605Z,8.19
2019-03-19T15:43:27.677Z,8.25
2019-03-19T15:45:54.875Z,8.38
2019-03-19T15:48:22.865Z,8.44
2019-03-19T15:50:50.825Z,8.63
2019-03-19T15:53:17.847Z,8.56
2019-03-19T15:55:44.945Z,8.63
2019-03-19T15:58:12.057Z,8.63
2019-03-19T16:00:39.230Z,8.63
2019-03-19T16:03:06.316Z,8.38
2019-03-19T16:05:33.492Z,8.38
2019-03-19T16:08:00.572Z,8.50
2019-03-19T16:10:27.584Z,8.31
2019-03-19T16:12:54.638Z,8.31
2019-03-19T16:15:21.869Z,8.25
2019-03-19T16:17:49.649Z,8.13
2019-03-19T16:20:16.863Z,8.38
2019-03-19T16:22:43.963Z,8.19
2019-03-19T16:25:11.010Z,8.31
2019-03-19T16:27:38.828Z,8.38
2019-03-19T16:30:08.979Z,8.38
2019-03-19T16:32:36.067Z,8.00
2019-03-19T16:35:03.295Z,8.13
2019-03-19T16:37:30.377Z,8.31
2019-03-19T16:39:57.633Z,8.13
2019-03-19T16:42:24.735Z,8.19
2019-03-19T16:44:51.823Z,8.25
2019-03-19T16:47:18.923Z,8.31
2019-03-19T16:49:45.937Z,7.94
2019-03-19T16:52:13.041Z,8.00
2019-03-19T16:54:40.037Z,7.87
2019-03-19T16:57:07.105Z,8.13
2019-03-19T16:59:34.156Z,7.94
2019-03-19T17:02:02.043Z,7.94
2019-03-19T17:04:28.377Z,7.81
2019-03-19T17:06:55.399Z,7.94
2019-03-19T17:09:22.390Z,7.62
2019-03-19T17:11:49.384Z,7.81
2019-03-19T17:14:16.677Z,7.81
2019-03-19T17:16:50.723Z,7.75
2019-03-19T17:19:17.805Z,7.81
2019-03-19T17:21:44.959Z,7.75
2019-03-19T17:24:11.997Z,7.69
2019-03-19T17:26:38.997Z,7.50
2019-03-19T17:29:06.837Z,7.62
2019-03-19T17:31:33.887Z,7.87
2019-03-19T17:34:00.945Z,7.81
2019-03-19T17:36:28.098Z,7.44
2019-03-19T17:38:55.215Z,7.44
2019-03-19T17:41:23.002Z,7.56
2019-03-19T17:43:50.145Z,7.62
2019-03-19T17:46:17.293Z,7.81
2019-03-19T17:48:44.437Z,7.94
2019-03-19T17:51:11.567Z,7.81
2019-03-19T17:53:38.674Z,7.81
2019-03-19T17:56:06.134Z,7.44
2019-03-19T17:58:33.254Z,7.44
2019-03-19T18:01:00.928Z,7.69
2019-03-19T18:03:28.125Z,7.56
2019-03-19T18:05:55.278Z,7.69
2019-03-19T18:08:22.467Z,7.87
2019-03-19T18:10:49.781Z,7.87
2019-03-19T18:13:16.871Z,7.37
2019-03-19T18:15:44.120Z,7.37
2019-03-19T18:18:11.088Z,7.31
2019-03-19T18:20:42.804Z,7.25
2019-03-19T18:23:10.160Z,7.31
2019-03-19T18:25:37.377Z,7.06
2019-03-19T18:28:04.483Z,7.31
2019-03-19T18:30:31.524Z,6.94
2019-03-19T18:32:58.610Z,7.25
2019-03-19T18:35:25.664Z,7.25
2019-03-19T18:37:52.772Z,7.19
2019-03-19T18:40:19.931Z,7.06
2019-03-19T18:42:47.169Z,7.19
2019-03-19T18:45:14.370Z,6.62
2019-03-19T18:47:42.183Z,6.69
2019-03-19T18:50:10.577Z,6.87
2019-03-19T18:52:37.633Z,6.94
2019-03-19T18:55:05.170Z,6.87
2019-03-19T18:57:32.323Z,7.06
2019-03-19T18:59:59.667Z,6.94
2019-03-19T19:02:26.805Z,6.75
2019-03-19T19:04:53.803Z,6.75
2019-03-19T19:07:20.960Z,6.81
2019-03-19T19:09:47.998Z,6.87
2019-03-19T19:12:22.869Z,6.87
2019-03-19T19:14:49.986Z,7.00
2019-03-19T19:17:17.184Z,7.00
2019-03-19T19:19:44.348Z,6.81
2019-03-19T19:22:11.671Z,7.00
2019-03-19T19:24:38.742Z,6.75
2019-03-19T19:27:05.928Z,6.44
2019-03-19T19:29:32.990Z,6.69
2019-03-19T19:32:00.086Z,6.81
2019-03-19T19:34:27.172Z,6.81
2019-03-19T19:36:54.149Z,6.37
2019-03-19T19:39:21.131Z,6.50
2019-03-19T19:41:49.149Z,6.69
2019-03-19T19:44:16.863Z,6.50
2019-03-19T19:46:43.845Z,6.37
2019-03-19T19:49:10.895Z,6.50
2019-03-19T19:51:38.863Z,6.44
2019-03-19T19:54:06.364Z,6.31
2019-03-19T19:56:33.378Z,6.44
2019-03-19T19:59:01.440Z,6.19
2019-03-19T20:01:28.521Z,6.62
2019-03-19T20:03:58.017Z,6.62
2019-03-19T20:06:25.090Z,6.37
2019-03-19T20:08:52.271Z,6.50
2019-03-19T20:11:20.443Z,6.31
2019-03-19T20:13:47.515Z,6.06
2019-03-19T20:16:15.430Z,6.31
2019-03-19T20:18:42.644Z,6.44
2019-03-19T20:21:10.751Z,6.25
2019-03-19T20:23:38.902Z,6.31
2019-03-19T20:26:06.517Z,6.62
2019-03-19T20:28:33.650Z,6.62
2019-03-19T20:31:01.318Z,6.19
2019-03-19T20:33:29.573Z,6.37
2019-03-19T20:35:57.654Z,6.12
2019-03-19T20:38:24.875Z,6.31
2019-03-19T20:40:54.303Z,6.50
2019-03-19T20:43:21.511Z,6.25
2019-03-19T20:45:48.738Z,6.19
2019-03-19T20:48:16.534Z,6.06
2019-03-19T20:50:44.361Z,6.12
2019-03-19T20:53:12.211Z,6.44
2019-03-19T20:55:39.315Z,6.12
2019-03-19T20:58:06.342Z,6.06
2019-03-19T21:00:34.168Z,6.00
2019-03-19T21:03:01.255Z,6.06
2019-03-19T21:05:29.282Z,5.75
2019-03-19T21:07:58.396Z,5.81
2019-03-19T21:10:26.606Z,5.69
2019-03-19T21:12:53.782Z,5.75
2019-03-19T21:15:22.292Z,5.87
2019-03-19T21:17:49.397Z,5.81
2019-03-19T21:20:17.002Z,5.94
2019-03-19T21:22:44.145Z,5.75
2019-03-19T21:25:11.143Z,5.81
2019-03-19T21:32:33.287Z,5.69
2019-03-19T21:35:00.351Z,6.12
2019-03-19T21:37:27.377Z,5.81
2019-03-19T21:39:54.717Z,5.62
2019-03-19T21:42:21.889Z,5.94
2019-03-19T21:44:48.902Z,6.06
2019-03-19T21:47:15.997Z,5.75
2019-03-19T21:49:45.123Z,5.62
2019-03-19T21:52:10.273Z,5.81
2019-03-19T21:54:37.256Z,5.75
2019-03-19T21:57:04.229Z,6.06
2019-03-19T21:59:31.202Z,5.94
2019-03-19T22:01:58.195Z,6.06
2019-03-19T22:04:25.149Z,6.06
2019-03-19T22:06:52.080Z,5.87
2019-03-19T22:09:19.026Z,5.44
2019-03-19T22:11:45.962Z,5.62
2019-03-19T22:14:12.867Z,5.62
2019-03-19T22:16:39.839Z,5.44
2019-03-19T22:19:06.853Z,5.50
2019-03-19T22:21:33.797Z,5.56
2019-03-19T22:24:00.730Z,5.56
2019-03-19T22:26:28.461Z,5.87
2019-03-19T22:28:55.393Z,5.62
2019-03-19T22:31:22.345Z,5.31
2019-03-19T22:33:49.617Z,5.56
2019-03-19T22:36:17.187Z,5.56
2019-03-19T22:38:44.187Z,5.44
2019-03-19T22:41:11.123Z,5.50
2019-03-19T22:43:38.145Z,5.25
2019-03-19T22:46:05.278Z,5.37
2019-03-19T22:48:32.224Z,5.19
2019-03-19T22:50:59.250Z,5.31
2019-03-19T22:53:26.229Z,5.00
2019-03-19T22:55:53.274Z,4.94
2019-03-19T22:58:20.323Z,5.37
2019-03-19T23:00:48.499Z,5.06
2019-03-19T23:03:15.567Z,5.31
2019-03-19T23:05:42.692Z,5.12
2019-03-19T23:08:09.681Z,5.06
2019-03-19T23:10:36.680Z,4.81
2019-03-19T23:13:03.687Z,4.75
2019-03-19T23:15:30.772Z,4.94
2019-03-19T23:17:57.790Z,4.94
2019-03-19T23:20:24.752Z,5.00
2019-03-19T23:22:51.718Z,5.12
2019-03-19T23:25:18.967Z,5.06
2019-03-19T23:27:45.919Z,4.62
2019-03-19T23:30:12.882Z,4.62
2019-03-19T23:32:39.873Z,4.56
2019-03-19T23:35:06.931Z,4.62
2019-03-19T23:37:34.016Z,4.50
2019-03-19T23:40:00.974Z,4.69
2019-03-19T23:42:27.959Z,4.62
2019-03-19T23:44:54.884Z,4.87
2019-03-19T23:47:21.814Z,4.75
2019-03-19T23:49:48.810Z,4.62
2019-03-19T23:52:15.854Z,4.50
2019-03-19T23:54:42.757Z,4.94
2019-03-19T23:57:09.678Z,4.56
2019-03-19T23:59:36.748Z,4.56
